Time;durP1;ratioP1;P1;durP2;ratioP2;P2;SDS_P1;SDS_P2;PMS_P1;PMS_P2;Temp;Humidity;BMP_temperature;BMP_pressure;BME280_temperature;BME280_humidity;BME280_pressure;Samples;Min_cycle;Max_cycle;Signal;HPM_P1;HPM_P2
2023/04/22 01:03:14;;;;;;;;;;;;;;;9.64;75.52;100599.56;6346671;22;19992;-96
2023/04/22 01:09:03;;;;;;;;;;;;;;;9.56;75.85;100607.56;6360644;22;19917;-93
2023/04/22 01:14:14;;;;;;;;;;;;;;;9.50;74.82;100587.53;6267460;22;20002;-95
2023/04/22 01:20:23;;;;;;;;;;;;;;;9.53;74.00;100587.25;6301566;22;19955;-95
2023/04/22 01:23:32;;;;;;;;;;;;;;;9.52;73.70;100588.22;6251322;22;19923;-95
2023/04/22 01:29:14;;;;;;;;;;;;;;;9.49;72.58;100573.28;6364113;22;19952;-96
2023/04/22 01:32:07;;;;;;;;;;;;;;;9.55;72.01;100571.81;6335163;22;19915;-95
2023/04/22 01:35:10;;;;;;;;;;;;;;;9.58;71.18;100563.47;6362559;22;19927;-93
2023/04/22 01:37:43;;;;;;;;;;;;;;;9.50;71.35;100577.69;6363213;22;19944;-93
2023/04/22 01:40:15;;;;;;;;;;;;;;;9.45;70.90;100579.13;6350782;22;19906;-95
2023/04/22 01:42:44;;;;;;;;;;;;;;;9.40;70.94;100574.22;6335545;22;19919;-95
2023/04/22 01:45:12;;;;;;;;;;;;;;;9.41;71.03;100578.59;6362219;22;19902;-95
2023/04/22 01:47:39;;;;;;;;;;;;;;;9.47;70.27;100575.28;6335311;22;19902;-95
2023/04/22 01:50:07;;;;;;;;;;;;;;;9.46;70.50;100586.19;6334264;22;19902;-94
2023/04/22 01:52:34;;;;;;;;;;;;;;;9.35;70.69;100581.91;6335346;22;19917;-92
2023/04/22 01:55:04;;;;;;;;;;;;;;;9.42;70.75;100580.28;6359933;22;19972;-95
2023/04/22 01:57:33;;;;;;;;;;;;;;;9.33;70.98;100575.00;6334749;22;19950;-95
2023/04/22 02:03:03;;;;;;;;;;;;;;;9.33;71.69;100575.00;6362551;22;19991;-95
2023/04/22 02:05:31;;;;;;;;;;;;;;;9.26;71.69;100580.97;6334171;22;19903;-96
2023/04/22 02:08:02;;;;;;;;;;;;;;;9.29;71.26;100569.97;6320641;22;19922;-96
2023/04/22 02:10:35;;;;;;;;;;;;;;;9.28;71.47;100572.78;6338588;22;20028;-95
2023/04/22 02:13:03;;;;;;;;;;;;;;;9.30;71.73;100576.16;6311242;22;19915;-92
2023/04/22 02:15:46;;;;;;;;;;;;;;;9.31;72.08;100577.84;6316277;22;19984;-96
2023/04/22 02:21:17;;;;;;;;;;;;;;;9.24;72.88;100571.41;6342319;22;19946;-96
2023/04/22 02:24:00;;;;;;;;;;;;;;;9.22;73.00;100573.38;6337706;22;19917;-94
2023/04/22 02:29:31;;;;;;;;;;;;;;;9.35;72.41;100584.59;6351586;22;19910;-93
2023/04/22 02:32:00;;;;;;;;;;;;;;;9.17;73.35;100581.06;6340735;22;19955;-95
2023/04/22 02:34:29;;;;;;;;;;;;;;;9.06;74.00;100585.69;6338058;22;20021;-95
2023/04/22 02:40:23;;;;;;;;;;;;;;;8.90;74.19;100577.47;6347628;22;19917;-94
2023/04/22 02:43:37;;;;;;;;;;;;;;;9.06;73.98;100571.41;6331809;22;20024;-95
2023/04/22 02:46:15;;;;;;;;;;;;;;;9.01;73.95;100581.75;6338529;22;19918;-94
2023/04/22 02:48:56;;;;;;;;;;;;;;;9.05;73.90;100580.44;6314879;22;19983;-95
2023/04/22 02:51:55;;;;;;;;;;;;;;;;;;;;;
2023/04/22 02:54:55;;;;;;;;;;;;;;;8.62;77.40;100593.56;6264577;23;19899;-95
2023/04/22 02:58:13;;;;;;;;;;;;;;;8.55;78.13;100599.69;6228097;22;19920;-96
2023/04/22 03:01:03;;;;;;;;;;;;;;;8.61;78.11;100591.03;6157769;23;19998;-94
2023/04/22 03:04:30;;;;;;;;;;;;;;;8.57;78.31;100592.31;6228507;22;19936;-95
2023/04/22 03:07:33;;;;;;;;;;;;;;;8.53;78.39;100594.47;6174557;23;19989;-95
2023/04/22 03:10:11;;;;;;;;;;;;;;;8.58;77.91;100586.81;6204562;23;19954;-96
2023/04/22 03:15:47;;;;;;;;;;;;;;;8.53;78.76;100594.47;6220239;23;19985;-95
2023/04/22 03:18:20;;;;;;;;;;;;;;;8.37;80.06;100594.25;6231701;22;20003;-95
2023/04/22 03:21:23;;;;;;;;;;;;;;;8.42;80.37;100598.19;6293273;22;19908;-95
2023/04/22 03:23:50;;;;;;;;;;;;;;;8.19;82.78;100596.84;6283158;22;19934;-94
2023/04/22 03:26:49;;;;;;;;;;;;;;;8.03;84.41;100603.69;6270849;22;19911;-96
2023/04/22 03:29:20;;;;;;;;;;;;;;;7.97;85.47;100598.06;6214430;23;20052;-94
2023/04/22 03:31:47;;;;;;;;;;;;;;;8.06;85.02;100597.19;6221755;23;19969;-96
2023/04/22 03:34:28;;;;;;;;;;;;;;;8.19;84.42;100600.41;6204225;23;19923;-95
2023/04/22 03:37:10;;;;;;;;;;;;;;;8.06;84.53;100607.06;6255737;23;19954;-95
2023/04/22 03:39:39;;;;;;;;;;;;;;;8.13;84.46;100622.41;6260536;22;19924;-94
2023/04/22 03:42:07;;;;;;;;;;;;;;;8.16;84.13;100623.94;6258136;22;19947;-96
2023/04/22 03:45:07;;;;;;;;;;;;;;;8.09;84.35;100623.66;6254353;23;19916;-93
2023/04/22 03:47:42;;;;;;;;;;;;;;;8.23;83.64;100631.22;6258379;22;19919;-92
2023/04/22 03:50:32;;;;;;;;;;;;;;;8.14;83.87;100632.09;6295775;22;19937;-95
2023/04/22 03:53:05;;;;;;;;;;;;;;;8.16;83.97;100640.84;6316369;22;19930;-92
2023/04/22 03:55:30;;;;;;;;;;;;;;;8.17;83.73;100642.53;6314396;22;19970;-91
2023/04/22 04:00:58;;;;;;;;;;;;;;;8.24;82.70;100654.34;6306596;22;20231;-87
2023/04/22 04:03:25;;;;;;;;;;;;;;;8.29;82.36;100661.09;6302189;22;19911;-88
2023/04/22 04:05:52;;;;;;;;;;;;;;;8.38;82.12;100657.53;6303155;22;20312;-88
2023/04/22 04:08:18;;;;;;;;;;;;;;;8.53;81.15;100671.34;6312366;22;20328;-91
2023/04/22 04:10:44;;;;;;;;;;;;;;;8.56;80.59;100673.72;6328745;22;19914;-92
2023/04/22 04:13:10;;;;;;;;;;;;;;;8.69;80.09;100674.25;6315837;22;19990;-89
2023/04/22 04:15:36;;;;;;;;;;;;;;;8.74;79.81;100677.31;6314802;22;19911;-90
2023/04/22 04:18:02;;;;;;;;;;;;;;;8.73;79.10;100675.59;6317069;22;19911;-88
2023/04/22 04:20:29;;;;;;;;;;;;;;;8.74;78.89;100681.84;6316980;22;19981;-90
2023/04/22 04:22:55;;;;;;;;;;;;;;;8.90;78.05;100678.47;6307065;22;20384;-88
2023/04/22 04:25:20;;;;;;;;;;;;;;;8.98;77.27;100678.59;6304595;22;20235;-91
2023/04/22 04:27:46;;;;;;;;;;;;;;;9.09;76.82;100681.91;6306026;22;19993;-91
2023/04/22 04:30:11;;;;;;;;;;;;;;;9.20;76.45;100682.69;6301710;22;20263;-89
2023/04/22 04:32:37;;;;;;;;;;;;;;;9.19;76.49;100684.53;6305706;22;19980;-89
2023/04/22 04:35:03;;;;;;;;;;;;;;;9.34;75.34;100684.00;6312437;22;19911;-87
2023/04/22 04:37:30;;;;;;;;;;;;;;;9.42;74.85;100692.97;6306096;22;19934;-90
2023/04/22 04:39:58;;;;;;;;;;;;;;;9.59;73.68;100687.78;6305589;22;20210;-89
2023/04/22 04:42:24;;;;;;;;;;;;;;;9.69;73.35;100699.25;6303978;22;20271;-92
2023/04/22 04:48:12;;;;;;;;;;;;;;;9.88;72.11;100707.16;6305089;22;19965;-91
2023/04/22 05:03:13;;;;;;;;;;;;;;;12.02;64.50;100723.19;6306854;22;19949;-94
2023/04/22 05:09:07;;;;;;;;;;;;;;;12.72;61.74;100727.13;6305925;22;19922;-91
2023/04/22 05:20:48;;;;;;;;;;;;;;;14.36;56.28;100718.84;6303184;22;19910;-93
2023/04/22 05:23:42;;;;;;;;;;;;;;;14.39;55.84;100722.22;6306000;22;19922;-92
2023/04/22 05:32:18;;;;;;;;;;;;;;;14.99;54.14;100726.66;6307108;22;20017;-92
2023/04/22 05:35:15;;;;;;;;;;;;;;;14.72;55.68;100728.97;6304849;22;20257;-92
2023/04/22 05:40:55;;;;;;;;;;;;;;;14.91;54.83;100737.56;6305111;22;19929;-92
2023/04/22 05:43:34;;;;;;;;;;;;;;;15.08;54.38;100743.63;6226122;22;19965;-93
2023/04/22 05:46:31;;;;;;;;;;;;;;;15.33;54.36;100747.69;6282982;22;19954;-92
2023/04/22 05:58:47;;;;;;;;;;;;;;;16.73;48.01;100749.00;6317182;22;19949;-95
2023/04/22 06:01:17;;;;;;;;;;;;;;;17.16;47.50;100748.84;6279128;22;20323;-94
2023/04/22 06:03:51;;;;;;;;;;;;;;;17.15;47.80;100747.16;6278709;22;19998;-91
2023/04/22 06:06:20;;;;;;;;;;;;;;;17.39;46.99;100753.13;6255941;22;19997;-92
2023/04/22 06:09:09;;;;;;;;;;;;;;;17.42;46.01;100758.13;6309171;22;19911;-94
2023/04/22 06:11:35;;;;;;;;;;;;;;;17.58;43.94;100765.09;6321365;22;19924;-92
2023/04/22 06:14:13;;;;;;;;;;;;;;;17.73;43.26;100765.78;6298766;22;20009;-92
2023/04/22 06:17:03;;;;;;;;;;;;;;;18.17;42.77;100772.56;6281518;22;19934;-95
2023/04/22 06:19:34;;;;;;;;;;;;;;;18.46;40.80;100775.91;6308616;22;19914;-93
2023/04/22 06:22:01;;;;;;;;;;;;;;;17.97;40.75;100769.00;6304580;22;19918;-93
2023/04/22 06:24:49;;;;;;;;;;;;;;;18.29;39.86;100776.34;6284441;22;20019;-95
2023/04/22 06:27:15;;;;;;;;;;;;;;;18.29;39.63;100770.91;6313375;22;19922;-90
2023/04/22 06:29:54;;;;;;;;;;;;;;;18.75;38.67;100786.38;6288002;22;19945;-93
2023/04/22 06:35:24;;;;;;;;;;;;;;;19.42;37.74;100786.22;6323527;22;19934;-91
2023/04/22 06:37:50;;;;;;;;;;;;;;;19.02;37.75;100782.78;6244602;22;19899;-88
2023/04/22 06:40:24;;;;;;;;;;;;;;;19.06;37.79;100786.72;6229861;22;19926;-88
2023/04/22 06:42:51;;;;;;;;;;;;;;;19.44;36.97;100778.66;6245596;23;19916;-91
2023/04/22 06:45:17;;;;;;;;;;;;;;;19.75;36.47;100796.16;6218351;23;20039;-93
2023/04/22 06:47:46;;;;;;;;;;;;;;;20.11;36.11;100800.13;6229820;23;19927;-91
2023/04/22 06:50:12;;;;;;;;;;;;;;;20.06;35.81;100791.75;6223286;23;19915;-91
2023/04/22 06:52:41;;;;;;;;;;;;;;;20.35;35.23;100795.75;6264667;22;19931;-94
2023/04/22 06:55:09;;;;;;;;;;;;;;;20.22;35.30;100802.16;6225670;22;19990;-91
2023/04/22 06:57:36;;;;;;;;;;;;;;;20.17;34.97;100805.53;6271614;22;20210;-93
2023/04/22 07:00:07;;;;;;;;;;;;;;;19.93;35.82;100793.53;6245533;22;19938;-90
2023/04/22 07:02:39;;;;;;;;;;;;;;;20.20;35.34;100804.25;6246785;22;19915;-96
2023/04/22 07:05:31;;;;;;;;;;;;;;;19.70;35.76;100795.97;6261616;22;19990;-94
2023/04/22 07:08:21;;;;;;;;;;;;;;;19.82;35.49;100799.69;6282661;22;19979;-96
2023/04/22 07:11:06;;;;;;;;;;;;;;;19.33;36.29;100798.41;6231892;23;19975;-93
2023/04/22 07:13:34;;;;;;;;;;;;;;;19.39;36.12;100797.56;6234919;23;19915;-91
2023/04/22 07:16:10;;;;;;;;;;;;;;;19.26;36.60;100800.31;6220002;23;19998;-93
2023/04/22 07:18:38;;;;;;;;;;;;;;;19.34;36.46;100803.66;6216222;23;19950;-95
2023/04/22 07:21:08;;;;;;;;;;;;;;;19.10;36.56;100810.63;6238843;23;20018;-90
2023/04/22 07:23:36;;;;;;;;;;;;;;;19.28;38.08;100817.28;6219624;23;19911;-96
2023/04/22 07:26:17;;;;;;;;;;;;;;;19.42;37.79;100820.81;6243098;23;19927;-96
2023/04/22 07:28:45;;;;;;;;;;;;;;;19.28;37.76;100822.75;6242878;23;20291;-93
2023/04/22 07:31:10;;;;;;;;;;;;;;;18.63;38.46;100820.72;6240798;23;19912;-92
2023/04/22 07:33:39;;;;;;;;;;;;;;;18.75;41.77;100829.94;6217993;23;19915;-93
2023/04/22 07:36:06;;;;;;;;;;;;;;;18.38;38.34;100816.94;6241731;23;19957;-90
2023/04/22 07:38:32;;;;;;;;;;;;;;;18.34;40.17;100820.09;6218298;23;20002;-91
2023/04/22 07:41:01;;;;;;;;;;;;;;;18.42;38.89;100829.09;6246724;22;19912;-91
2023/04/22 07:43:26;;;;;;;;;;;;;;;18.50;38.61;100823.47;6296649;22;19922;-93
2023/04/22 07:48:32;;;;;;;;;;;;;;;18.43;39.18;100826.19;6323806;22;19928;-95
2023/04/22 07:50:57;;;;;;;;;;;;;;;18.46;38.58;100835.81;6332680;22;19915;-94
2023/04/22 07:53:26;;;;;;;;;;;;;;;19.35;37.27;100829.00;6321552;22;19914;-91
2023/04/22 07:55:53;;;;;;;;;;;;;;;20.17;35.53;100834.72;6315413;22;19915;-95
2023/04/22 07:58:24;;;;;;;;;;;;;;;20.91;34.82;100833.13;6277215;22;19910;-90
2023/04/22 08:00:50;;;;;;;;;;;;;;;21.88;33.14;100816.84;6313025;22;19971;-92
2023/04/22 08:03:22;;;;;;;;;;;;;;;22.71;31.88;100828.00;6358909;22;19910;-94
2023/04/22 08:08:48;;;;;;;;;;;;;;;24.14;29.49;100822.84;6336463;22;19953;-91
2023/04/22 08:11:19;;;;;;;;;;;;;;;24.63;27.95;100828.66;6346245;22;19914;-92
2023/04/22 08:13:46;;;;;;;;;;;;;;;25.39;27.13;100817.13;6331985;22;19919;-92
2023/04/22 08:16:19;;;;;;;;;;;;;;;25.62;26.38;100821.53;6298667;22;19906;-93
2023/04/22 08:18:46;;;;;;;;;;;;;;;25.04;26.39;100825.69;6326914;22;19976;-95
2023/04/22 08:21:30;;;;;;;;;;;;;;;25.72;24.75;100815.31;6317509;22;20881;-93
2023/04/22 08:24:15;;;;;;;;;;;;;;;26.02;24.69;100814.84;6315156;22;20307;-95
2023/04/22 08:26:42;;;;;;;;;;;;;;;27.17;23.33;100819.88;6312046;22;19924;-92
2023/04/22 08:29:26;;;;;;;;;;;;;;;26.82;23.36;100809.47;6315623;22;20217;-95
2023/04/22 08:31:53;;;;;;;;;;;;;;;27.22;23.63;100810.00;6341633;22;19933;-92
2023/04/22 08:34:20;;;;;;;;;;;;;;;28.25;22.58;100802.84;6321301;22;19915;-94
2023/04/22 08:36:51;;;;;;;;;;;;;;;29.13;21.40;100810.00;6316588;22;19925;-92
2023/04/22 08:39:26;;;;;;;;;;;;;;;28.79;21.45;100805.06;6344853;22;19979;-93
2023/04/22 08:41:55;;;;;;;;;;;;;;;27.75;22.23;100816.28;6316184;22;20027;-94
2023/04/22 08:47:10;;;;;;;;;;;;;;;28.78;20.78;100815.31;6318799;22;19918;-96
2023/04/22 08:49:38;;;;;;;;;;;;;;;29.40;20.64;100815.97;6335350;22;19915;-90
2023/04/22 08:52:03;;;;;;;;;;;;;;;30.58;19.06;100803.34;6307441;22;19979;-93
2023/04/22 08:54:32;;;;;;;;;;;;;;;30.52;18.77;100797.03;6310218;22;19910;-95
2023/04/22 08:57:00;;;;;;;;;;;;;;;29.28;19.53;100801.63;6322587;22;19953;-89
2023/04/22 08:59:27;;;;;;;;;;;;;;;28.66;20.86;100800.94;6325543;22;19921;-93
2023/04/22 09:01:52;;;;;;;;;;;;;;;29.51;20.37;100797.38;6312789;22;19911;-89
2023/04/22 09:04:18;;;;;;;;;;;;;;;28.32;21.56;100801.47;6307005;22;20332;-89
2023/04/22 09:06:43;;;;;;;;;;;;;;;29.05;20.48;100803.88;6334149;22;20296;-89
2023/04/22 09:09:09;;;;;;;;;;;;;;;29.13;20.16;100802.53;6342106;22;19910;-90
2023/04/22 09:11:36;;;;;;;;;;;;;;;29.67;21.06;100799.00;6281784;22;19926;-93
2023/04/22 09:14:05;;;;;;;;;;;;;;;30.75;18.66;100805.69;6309019;22;19914;-90
2023/04/22 09:16:31;;;;;;;;;;;;;;;31.25;18.19;100807.09;6336185;22;19914;-87
2023/04/22 09:18:57;;;;;;;;;;;;;;;31.33;17.70;100800.91;6344417;22;19968;-86
2023/04/22 09:21:28;;;;;;;;;;;;;;;31.73;17.34;100798.72;6336102;22;20288;-87
2023/04/22 09:23:55;;;;;;;;;;;;;;;33.13;16.27;100800.84;6336441;22;19910;-88
2023/04/22 09:26:22;;;;;;;;;;;;;;;34.19;15.37;100799.66;6336212;22;19911;-87
2023/04/22 09:28:51;;;;;;;;;;;;;;;33.34;15.69;100792.91;6308440;22;19922;-87
2023/04/22 09:31:18;;;;;;;;;;;;;;;33.42;16.00;100803.34;6334097;22;19946;-87
2023/04/22 09:33:52;;;;;;;;;;;;;;;33.39;15.39;100802.00;6306526;22;19917;-88
2023/04/22 09:36:22;;;;;;;;;;;;;;;34.59;14.94;100793.34;6335485;22;19910;-88
2023/04/22 09:38:52;;;;;;;;;;;;;;;35.62;14.69;100794.94;6309069;22;19942;-89
2023/04/22 09:41:25;;;;;;;;;;;;;;;35.96;13.88;100793.31;6311781;22;20319;-86
2023/04/22 09:43:50;;;;;;;;;;;;;;;37.51;12.60;100797.97;6311213;22;19915;-86
2023/04/22 09:46:16;;;;;;;;;;;;;;;37.70;12.58;100795.56;6335970;22;20044;-87
2023/04/22 09:48:41;;;;;;;;;;;;;;;38.42;12.11;100793.47;6334667;22;20355;-87
2023/04/22 09:51:18;;;;;;;;;;;;;;;37.30;13.18;100795.13;6305641;22;19930;-88
2023/04/22 09:53:43;;;;;;;;;;;;;;;37.26;12.71;100791.38;6333881;22;19911;-88
2023/04/22 09:56:08;;;;;;;;;;;;;;;35.73;13.89;100798.25;6335544;22;19914;-87
2023/04/22 09:58:37;;;;;;;;;;;;;;;36.65;12.83;100798.03;6306393;22;19972;-88
2023/04/22 10:01:03;;;;;;;;;;;;;;;37.43;12.31;100793.25;6306316;22;19911;-86
2023/04/22 10:03:28;;;;;;;;;;;;;;;39.01;11.37;100778.28;6330720;22;19914;-87
2023/04/22 10:05:53;;;;;;;;;;;;;;;39.18;11.35;100774.38;6306157;22;20362;-89
2023/04/22 10:08:19;;;;;;;;;;;;;;;39.08;11.27;100777.69;6313238;22;19967;-87
2023/04/22 10:10:44;;;;;;;;;;;;;;;38.03;11.92;100778.00;6334856;22;20328;-87
2023/04/22 10:13:11;;;;;;;;;;;;;;;35.91;13.31;100780.31;6283821;22;19976;-87
2023/04/22 10:15:40;;;;;;;;;;;;;;;34.43;14.41;100787.34;6307116;22;19922;-87
2023/04/22 10:18:06;;;;;;;;;;;;;;;34.52;14.37;100768.69;6279224;22;19953;-87
2023/04/22 10:20:31;;;;;;;;;;;;;;;35.24;14.40;100777.91;6316109;22;19925;-86
2023/04/22 10:22:57;;;;;;;;;;;;;;;35.96;13.98;100781.31;6321660;22;19911;-87
2023/04/22 10:25:24;;;;;;;;;;;;;;;36.60;13.11;100783.38;6310778;22;19910;-86
2023/04/22 10:28:09;;;;;;;;;;;;;;;33.68;14.99;100789.69;6306265;22;19976;-86
2023/04/22 10:30:43;;;;;;;;;;;;;;;35.01;14.17;100779.94;6334202;22;19915;-88
2023/04/22 10:33:27;;;;;;;;;;;;;;;34.79;14.25;100783.63;6334337;22;20344;-87
2023/04/22 10:36:11;;;;;;;;;;;;;;;33.81;15.01;100769.31;6335079;22;19910;-86
2023/04/22 10:38:41;;;;;;;;;;;;;;;35.43;13.79;100775.66;6333187;22;19917;-86
2023/04/22 10:41:12;;;;;;;;;;;;;;;36.05;13.26;100776.53;6306378;22;19919;-87
2023/04/22 10:43:44;;;;;;;;;;;;;;;36.22;13.37;100773.75;6306858;22;19951;-87
2023/04/22 10:46:29;;;;;;;;;;;;;;;36.40;13.08;100773.72;6306179;22;20304;-87
2023/04/22 10:48:55;;;;;;;;;;;;;;;36.89;12.90;100771.44;6334364;22;19911;-91
2023/04/22 10:51:50;;;;;;;;;;;;;;;34.92;14.32;100760.34;6309575;22;19911;-87
2023/04/22 10:54:27;;;;;;;;;;;;;;;32.11;16.39;100764.53;6314240;22;19915;-87
2023/04/22 10:57:04;;;;;;;;;;;;;;;29.81;18.22;100765.13;6334467;22;19910;-88
2023/04/22 10:59:32;;;;;;;;;;;;;;;30.28;18.00;100764.50;6335123;22;19910;-88
2023/04/22 11:02:02;;;;;;;;;;;;;;;31.20;17.33;100770.25;6280679;22;19944;-87
2023/04/22 11:04:28;;;;;;;;;;;;;;;31.62;17.29;100769.41;6306006;22;19918;-85
2023/04/22 11:07:13;;;;;;;;;;;;;;;31.39;18.02;100764.72;6332593;22;19942;-87
2023/04/22 11:09:39;;;;;;;;;;;;;;;29.39;19.85;100761.72;6331942;22;20343;-86
2023/04/22 11:12:23;;;;;;;;;;;;;;;28.15;21.31;100771.34;6333064;22;20040;-87
2023/04/22 11:14:48;;;;;;;;;;;;;;;29.19;20.32;100781.19;6332937;22;19958;-87
2023/04/22 11:17:15;;;;;;;;;;;;;;;27.68;21.92;100779.81;6305362;22;19942;-87
2023/04/22 11:19:41;;;;;;;;;;;;;;;27.21;23.01;100786.28;6333343;22;19907;-87
2023/04/22 11:22:07;;;;;;;;;;;;;;;26.15;23.82;100786.03;6333959;22;19976;-85
2023/04/22 11:24:32;;;;;;;;;;;;;;;26.08;23.73;100777.13;6307298;22;19934;-86
2023/04/22 11:27:00;;;;;;;;;;;;;;;26.35;23.68;100782.63;6283083;22;19914;-85
2023/04/22 11:29:25;;;;;;;;;;;;;;;25.85;24.20;100773.59;6335939;22;20036;-86
2023/04/22 11:31:51;;;;;;;;;;;;;;;25.18;25.28;100787.69;6315715;22;19915;-85
2023/04/22 11:34:17;;;;;;;;;;;;;;;24.97;25.96;100778.28;6321663;22;19910;-87
2023/04/22 11:36:44;;;;;;;;;;;;;;;24.41;26.15;100778.25;6310103;22;19915;-86
2023/04/22 11:39:13;;;;;;;;;;;;;;;24.54;25.81;100779.88;6336883;22;20001;-87
2023/04/22 11:41:45;;;;;;;;;;;;;;;24.42;27.12;100769.75;6337645;22;19963;-87
2023/04/22 11:44:12;;;;;;;;;;;;;;;23.80;28.06;100784.31;6306762;22;20009;-87
2023/04/22 11:46:38;;;;;;;;;;;;;;;23.58;28.19;100788.81;6281346;22;19934;-87
2023/04/22 11:49:35;;;;;;;;;;;;;;;23.43;28.46;100783.00;6309135;22;19980;-88
2023/04/22 11:52:03;;;;;;;;;;;;;;;23.85;27.87;100785.50;6335531;22;19911;-86
2023/04/22 11:54:53;;;;;;;;;;;;;;;23.68;27.93;100775.28;6308794;22;19914;-87
2023/04/22 11:57:20;;;;;;;;;;;;;;;23.00;32.46;100784.31;6335099;22;19915;-87
2023/04/22 11:59:58;;;;;;;;;;;;;;;22.81;33.22;100776.19;6341097;22;19910;-87
2023/04/22 12:02:25;;;;;;;;;;;;;;;22.72;33.89;100788.59;6311816;22;19911;-86
2023/04/22 12:04:53;;;;;;;;;;;;;;;22.11;34.75;100794.19;6308731;22;19933;-86
2023/04/22 12:07:20;;;;;;;;;;;;;;;21.50;35.62;100781.59;6335800;22;19921;-87
2023/04/22 12:09:48;;;;;;;;;;;;;;;21.13;33.67;100780.75;6310794;22;19910;-88
2023/04/22 12:12:14;;;;;;;;;;;;;;;21.86;33.36;100785.28;6336474;22;20407;-85
2023/04/22 12:14:40;;;;;;;;;;;;;;;22.16;31.63;100773.50;6335809;22;19910;-87
2023/04/22 12:17:10;;;;;;;;;;;;;;;22.34;30.81;100774.25;6309694;22;19914;-85
2023/04/22 12:19:36;;;;;;;;;;;;;;;22.07;30.61;100778.47;6282447;22;19915;-86
2023/04/22 12:22:02;;;;;;;;;;;;;;;21.93;31.22;100775.09;6307686;22;19914;-86
2023/04/22 12:24:27;;;;;;;;;;;;;;;21.89;31.33;100779.34;6339179;22;19911;-86
2023/04/22 12:26:53;;;;;;;;;;;;;;;21.85;31.35;100781.72;6329365;22;19911;-85
2023/04/22 12:29:31;;;;;;;;;;;;;;;21.91;31.94;100783.56;6339972;22;19922;-86
2023/04/22 12:31:57;;;;;;;;;;;;;;;21.12;38.49;100788.13;6309225;22;19980;-86
2023/04/22 12:34:22;;;;;;;;;;;;;;;19.14;47.37;100790.06;6309319;22;19911;-87
2023/04/22 12:36:49;;;;;;;;;;;;;;;18.71;48.88;100797.91;6339788;22;19985;-87
2023/04/22 12:39:15;;;;;;;;;;;;;;;17.72;52.08;100804.88;6306471;22;19911;-86
2023/04/22 12:41:42;;;;;;;;;;;;;;;17.31;53.50;100805.75;6335888;22;19918;-87
2023/04/22 12:44:07;;;;;;;;;;;;;;;16.85;55.05;100806.31;6336214;22;19921;-86
2023/04/22 12:46:33;;;;;;;;;;;;;;;15.99;57.43;100800.97;6308908;22;19915;-86
2023/04/22 12:49:01;;;;;;;;;;;;;;;15.80;59.35;100802.44;6335603;22;19942;-87
2023/04/22 12:51:27;;;;;;;;;;;;;;;15.86;59.63;100801.69;6308997;22;19971;-87
2023/04/22 12:53:54;;;;;;;;;;;;;;;15.51;60.84;100819.59;6334370;22;19993;-87
2023/04/22 12:56:21;;;;;;;;;;;;;;;15.47;60.90;100807.44;6305957;22;19907;-87
2023/04/22 12:58:47;;;;;;;;;;;;;;;15.01;62.27;100813.06;6309011;22;20035;-89
2023/04/22 13:01:12;;;;;;;;;;;;;;;15.39;61.25;100811.09;6334204;22;20327;-88
2023/04/22 13:03:41;;;;;;;;;;;;;;;15.11;62.17;100808.22;6335798;22;19942;-87
2023/04/22 13:06:08;;;;;;;;;;;;;;;14.98;62.71;100807.03;6341530;22;20033;-87
2023/04/22 13:08:35;;;;;;;;;;;;;;;15.54;60.73;100819.19;6334591;22;19911;-86
2023/04/22 13:11:00;;;;;;;;;;;;;;;15.48;60.86;100809.97;6305707;22;20069;-86
2023/04/22 13:13:26;;;;;;;;;;;;;;;15.53;61.52;100804.00;6308936;22;19910;-85
2023/04/22 13:15:52;;;;;;;;;;;;;;;15.26;61.85;100800.94;6307716;22;19993;-85
2023/04/22 13:18:21;;;;;;;;;;;;;;;14.95;62.42;100810.09;6307767;22;19914;-86
2023/04/22 13:20:50;;;;;;;;;;;;;;;15.01;62.75;100807.66;6309209;22;19953;-87
2023/04/22 13:23:20;;;;;;;;;;;;;;;14.82;62.90;100804.50;6335373;22;19918;-86
2023/04/22 13:25:46;;;;;;;;;;;;;;;14.86;62.87;100811.19;6308470;22;19925;-86
2023/04/22 13:28:13;;;;;;;;;;;;;;;14.84;63.03;100810.53;6281348;22;20035;-89
2023/04/22 13:30:38;;;;;;;;;;;;;;;14.42;64.48;100819.19;6308549;22;20149;-88
2023/04/22 13:33:04;;;;;;;;;;;;;;;14.67;64.00;100823.41;6340311;22;20247;-87
2023/04/22 13:35:30;;;;;;;;;;;;;;;14.92;63.20;100813.19;6342036;22;20000;-87
2023/04/22 13:37:55;;;;;;;;;;;;;;;15.02;62.73;100818.31;6342443;22;19911;-87
2023/04/22 13:40:22;;;;;;;;;;;;;;;14.53;64.38;100824.19;6340056;22;19989;-87
2023/04/22 13:42:47;;;;;;;;;;;;;;;14.42;64.41;100830.88;6287674;22;19911;-87
2023/04/22 13:45:13;;;;;;;;;;;;;;;14.36;65.21;100832.44;6316824;22;20358;-87
2023/04/22 13:47:40;;;;;;;;;;;;;;;14.41;65.08;100839.16;6310293;22;20217;-85
2023/04/22 13:50:05;;;;;;;;;;;;;;;14.42;64.98;100825.47;6311550;22;20362;-86
2023/04/22 13:52:31;;;;;;;;;;;;;;;14.44;64.63;100834.22;6279619;22;19911;-88
2023/04/22 13:54:56;;;;;;;;;;;;;;;14.32;65.50;100841.09;6304060;22;19956;-86
2023/04/22 13:57:22;;;;;;;;;;;;;;;14.40;65.16;100822.09;6302197;22;19918;-86
2023/04/22 13:59:48;;;;;;;;;;;;;;;14.38;65.67;100834.97;6280868;22;19911;-86
2023/04/22 14:02:14;;;;;;;;;;;;;;;14.00;66.47;100837.63;6277843;22;19950;-87
2023/04/22 14:04:39;;;;;;;;;;;;;;;14.19;66.61;100830.91;6303799;22;19914;-86
2023/04/22 14:07:06;;;;;;;;;;;;;;;13.97;66.72;100831.72;6303460;22;20273;-86
2023/04/22 14:09:33;;;;;;;;;;;;;;;13.51;68.72;100827.09;6304147;22;19915;-86
2023/04/22 14:12:02;;;;;;;;;;;;;;;13.68;68.69;100839.47;6302976;22;19976;-85
2023/04/22 14:14:31;;;;;;;;;;;;;;;14.05;66.99;100837.91;6306276;22;19937;-87
2023/04/22 14:16:57;;;;;;;;;;;;;;;14.04;66.77;100838.91;6302414;22;19934;-87
2023/04/22 14:19:23;;;;;;;;;;;;;;;14.36;65.54;100831.59;6303735;22;19919;-88
2023/04/22 14:21:51;;;;;;;;;;;;;;;14.64;64.12;100844.59;6277947;22;19934;-87
2023/04/22 14:24:20;;;;;;;;;;;;;;;14.70;63.59;100844.69;6276452;22;19911;-87
2023/04/22 14:26:45;;;;;;;;;;;;;;;14.57;64.30;100850.72;6302546;22;20300;-86
2023/04/22 14:29:12;;;;;;;;;;;;;;;14.72;64.13;100847.22;6303189;22;19929;-86
2023/04/22 14:31:37;;;;;;;;;;;;;;;14.36;64.89;100858.66;6313073;22;19915;-87
2023/04/22 14:34:05;;;;;;;;;;;;;;;14.05;65.77;100864.13;6318736;22;19958;-87
2023/04/22 14:36:34;;;;;;;;;;;;;;;13.91;66.41;100865.72;6306033;22;19955;-90
2023/04/22 14:39:07;;;;;;;;;;;;;;;13.84;66.93;100870.16;6314772;22;19972;-90
2023/04/22 14:41:32;;;;;;;;;;;;;;;13.79;66.83;100867.09;6295123;22;19911;-90
2023/04/22 14:43:59;;;;;;;;;;;;;;;13.71;67.48;100871.53;6321282;22;19930;-88
2023/04/22 14:46:28;;;;;;;;;;;;;;;13.81;67.39;100884.00;6308295;22;19907;-92
2023/04/22 14:48:57;;;;;;;;;;;;;;;13.85;67.34;100875.34;6307879;22;19902;-91
2023/04/22 14:51:27;;;;;;;;;;;;;;;13.90;66.96;100874.81;6328579;22;19941;-90
2023/04/22 14:53:54;;;;;;;;;;;;;;;13.98;67.11;100871.22;6350936;22;19938;-93
2023/04/22 14:56:35;;;;;;;;;;;;;;;14.15;66.44;100872.81;6343625;22;20006;-91
2023/04/22 14:59:01;;;;;;;;;;;;;;;14.12;66.18;100876.72;6339422;22;19955;-90
2023/04/22 15:01:28;;;;;;;;;;;;;;;13.85;67.28;100880.75;6307084;22;20346;-89
2023/04/22 15:03:54;;;;;;;;;;;;;;;13.82;67.35;100883.81;6308996;22;19987;-88
2023/04/22 15:06:19;;;;;;;;;;;;;;;13.76;67.76;100883.69;6280673;22;19914;-90
2023/04/22 15:08:45;;;;;;;;;;;;;;;13.66;68.07;100892.00;6307441;22;20322;-92
2023/04/22 15:11:12;;;;;;;;;;;;;;;13.64;67.38;100886.78;6289354;22;19910;-91
2023/04/22 15:13:39;;;;;;;;;;;;;;;13.46;68.14;100883.47;6309500;22;19942;-88
2023/04/22 15:16:06;;;;;;;;;;;;;;;13.45;67.68;100881.78;6306517;22;19919;-90
2023/04/22 15:18:32;;;;;;;;;;;;;;;13.27;68.58;100890.97;6308392;22;19926;-93
2023/04/22 15:20:58;;;;;;;;;;;;;;;13.17;68.90;100889.44;6307556;22;19918;-92
2023/04/22 15:23:24;;;;;;;;;;;;;;;13.25;68.63;100890.28;6308347;22;19967;-91
2023/04/22 15:25:51;;;;;;;;;;;;;;;13.28;68.51;100884.53;6316983;22;19911;-92
2023/04/22 15:28:37;;;;;;;;;;;;;;;13.30;68.88;100885.22;6334699;22;19987;-92
2023/04/22 15:31:02;;;;;;;;;;;;;;;13.59;68.15;100878.34;6311564;22;19957;-92
2023/04/22 15:33:28;;;;;;;;;;;;;;;13.78;67.82;100884.34;6321271;22;20353;-91